sensor_id;sensor_type;location;lat;lon;timestamp;pressure;altitude;pressure_sealevel;temperature;humidity
62510;BME280;48558;48.242;11.654;2022-11-15T00:00:58;96216.22;;;2.58;100.00
62510;BME280;48558;48.242;11.654;2022-11-15T00:05:11;96210.94;;;2.48;100.00
62510;BME280;48558;48.242;11.654;2022-11-15T00:09:24;96206.72;;;2.43;100.00
62510;BME280;48558;48.242;11.654;2022-11-15T00:13:41;96214.44;;;2.48;100.00
62510;BME280;48558;48.242;11.654;2022-11-15T00:17:54;96207.53;;;2.40;100.00
62510;BME280;48558;48.242;11.654;2022-11-15T00:22:07;96200.44;;;2.46;100.00
62510;BME280;48558;48.242;11.654;2022-11-15T00:26:19;96203.09;;;2.50;100.00
62510;BME280;48558;48.242;11.654;2022-11-15T00:30:31;96200.69;;;2.55;100.00
62510;BME280;48558;48.242;11.654;2022-11-15T00:34:44;96193.31;;;2.52;100.00
62510;BME280;48558;48.242;11.654;2022-11-15T00:38:56;96192.63;;;2.48;100.00
62510;BME280;48558;48.242;11.654;2022-11-15T00:43:08;96190.03;;;2.38;100.00
62510;BME280;48558;48.242;11.654;2022-11-15T00:47:21;96187.16;;;2.48;100.00
62510;BME280;48558;48.242;11.654;2022-11-15T00:51:33;96189.09;;;2.48;100.00
62510;BME280;48558;48.242;11.654;2022-11-15T00:55:46;96182.06;;;2.50;100.00
62510;BME280;48558;48.242;11.654;2022-11-15T00:59:58;96188.44;;;2.40;100.00
62510;BME280;48558;48.242;11.654;2022-11-15T01:04:10;96178.75;;;2.36;100.00
62510;BME280;48558;48.242;11.654;2022-11-15T01:08:23;96167.97;;;2.29;100.00
62510;BME280;48558;48.242;11.654;2022-11-15T01:12:35;96162.03;;;2.34;100.00
62510;BME280;48558;48.242;11.654;2022-11-15T01:16:48;96141.13;;;2.27;100.00
62510;BME280;48558;48.242;11.654;2022-11-15T01:21:14;96144.09;;;2.36;100.00
62510;BME280;48558;48.242;11.654;2022-11-15T01:25:27;96139.88;;;2.32;100.00
62510;BME280;48558;48.242;11.654;2022-11-15T01:29:40;96139.25;;;2.47;100.00
62510;BME280;48558;48.242;11.654;2022-11-15T01:33:52;96134.09;;;2.76;100.00
62510;BME280;48558;48.242;11.654;2022-11-15T01:38:04;96124.31;;;2.78;100.00
62510;BME280;48558;48.242;11.654;2022-11-15T01:42:17;96129.59;;;2.89;100.00
62510;BME280;48558;48.242;11.654;2022-11-15T01:46:35;96120.44;;;2.76;100.00
62510;BME280;48558;48.242;11.654;2022-11-15T01:50:48;96120.88;;;2.74;100.00
62510;BME280;48558;48.242;11.654;2022-11-15T01:55:11;96121.09;;;2.60;100.00
62510;BME280;48558;48.242;11.654;2022-11-15T01:59:25;96108.78;;;2.52;100.00
62510;BME280;48558;48.242;11.654;2022-11-15T02:03:44;96106.53;;;2.47;100.00
62510;BME280;48558;48.242;11.654;2022-11-15T02:07:59;96106.53;;;2.47;100.00
62510;BME280;48558;48.242;11.654;2022-11-15T02:12:15;96105.34;;;2.48;100.00
62510;BME280;48558;48.242;11.654;2022-11-15T02:30:40;96089.28;;;2.31;100.00
62510;BME280;48558;48.242;11.654;2022-11-15T02:44:40;96095.34;;;2.15;100.00
62510;BME280;48558;48.242;11.654;2022-11-15T02:48:31;96088.78;;;2.12;100.00
62510;BME280;48558;48.242;11.654;2022-11-15T02:52:50;96079.47;;;2.10;100.00
62510;BME280;48558;48.242;11.654;2022-11-15T02:57:14;96076.75;;;2.10;100.00
62510;BME280;48558;48.242;11.654;2022-11-15T03:10:49;96064.25;;;1.86;100.00
62510;BME280;48558;48.242;11.654;2022-11-15T03:15:21;96066.94;;;1.89;100.00
62510;BME280;48558;48.242;11.654;2022-11-15T03:23:55;96056.94;;;1.83;100.00
62510;BME280;48558;48.242;11.654;2022-11-15T03:28:13;96043.78;;;1.78;100.00
62510;BME280;48558;48.242;11.654;2022-11-15T03:32:30;96043.81;;;1.74;100.00
62510;BME280;48558;48.242;11.654;2022-11-15T03:36:44;96040.88;;;1.62;100.00
62510;BME280;48558;48.242;11.654;2022-11-15T03:41:01;96043.97;;;1.64;100.00
62510;BME280;48558;48.242;11.654;2022-11-15T03:45:19;96034.63;;;1.65;100.00
62510;BME280;48558;48.242;11.654;2022-11-15T03:49:36;96035.34;;;1.69;100.00
62510;BME280;48558;48.242;11.654;2022-11-15T03:53:50;96033.53;;;1.85;100.00
62510;BME280;48558;48.242;11.654;2022-11-15T03:58:02;96017.66;;;1.80;100.00
62510;BME280;48558;48.242;11.654;2022-11-15T04:02:14;96028.44;;;1.87;100.00
62510;BME280;48558;48.242;11.654;2022-11-15T04:06:27;96031.09;;;1.91;100.00
62510;BME280;48558;48.242;11.654;2022-11-15T04:10:39;96023.00;;;1.87;100.00
62510;BME280;48558;48.242;11.654;2022-11-15T04:14:51;96015.28;;;1.82;100.00
62510;BME280;48558;48.242;11.654;2022-11-15T04:19:18;96006.09;;;1.73;100.00
62510;BME280;48558;48.242;11.654;2022-11-15T04:23:49;96005.28;;;1.76;100.00
62510;BME280;48558;48.242;11.654;2022-11-15T04:28:18;96005.75;;;1.71;100.00
62510;BME280;48558;48.242;11.654;2022-11-15T04:32:30;95995.75;;;1.61;100.00
62510;BME280;48558;48.242;11.654;2022-11-15T04:36:42;95991.16;;;1.58;100.00
62510;BME280;48558;48.242;11.654;2022-11-15T04:41:13;95972.13;;;1.54;100.00
62510;BME280;48558;48.242;11.654;2022-11-15T04:45:26;95976.88;;;1.50;100.00
62510;BME280;48558;48.242;11.654;2022-11-15T04:49:38;95978.00;;;1.53;100.00
62510;BME280;48558;48.242;11.654;2022-11-15T04:53:50;95979.56;;;1.54;100.00
62510;BME280;48558;48.242;11.654;2022-11-15T04:58:03;95977.53;;;1.58;100.00
62510;BME280;48558;48.242;11.654;2022-11-15T05:02:15;95994.50;;;1.42;100.00
62510;BME280;48558;48.242;11.654;2022-11-15T05:06:28;95998.38;;;1.41;100.00
62510;BME280;48558;48.242;11.654;2022-11-15T05:10:41;95998.47;;;1.34;100.00
62510;BME280;48558;48.242;11.654;2022-11-15T05:14:53;95983.38;;;1.29;100.00
62510;BME280;48558;48.242;11.654;2022-11-15T05:19:06;95978.09;;;1.19;100.00
62510;BME280;48558;48.242;11.654;2022-11-15T05:23:18;95977.41;;;1.11;100.00
62510;BME280;48558;48.242;11.654;2022-11-15T05:27:30;95976.28;;;1.09;100.00
62510;BME280;48558;48.242;11.654;2022-11-15T05:31:43;95972.84;;;1.05;100.00
62510;BME280;48558;48.242;11.654;2022-11-15T05:36:00;95949.56;;;1.04;100.00
62510;BME280;48558;48.242;11.654;2022-11-15T05:40:15;95958.09;;;1.02;100.00
62510;BME280;48558;48.242;11.654;2022-11-15T05:44:27;95950.00;;;0.99;100.00
62510;BME280;48558;48.242;11.654;2022-11-15T05:48:42;95942.28;;;0.94;100.00
62510;BME280;48558;48.242;11.654;2022-11-15T05:52:56;95947.72;;;0.94;100.00
62510;BME280;48558;48.242;11.654;2022-11-15T05:57:15;95948.09;;;0.96;100.00
62510;BME280;48558;48.242;11.654;2022-11-15T06:01:28;95946.84;;;1.00;100.00
62510;BME280;48558;48.242;11.654;2022-11-15T06:05:40;95948.78;;;1.03;100.00
62510;BME280;48558;48.242;11.654;2022-11-15T06:09:53;95955.66;;;1.11;100.00
62510;BME280;48558;48.242;11.654;2022-11-15T06:14:05;95943.69;;;1.05;100.00
62510;BME280;48558;48.242;11.654;2022-11-15T06:18:17;95945.69;;;1.01;100.00
62510;BME280;48558;48.242;11.654;2022-11-15T06:22:29;95937.56;;;0.98;100.00
62510;BME280;48558;48.242;11.654;2022-11-15T06:26:42;95931.00;;;0.95;100.00
62510;BME280;48558;48.242;11.654;2022-11-15T06:30:54;95918.84;;;1.03;100.00
62510;BME280;48558;48.242;11.654;2022-11-15T06:35:06;95929.31;;;1.05;100.00
62510;BME280;48558;48.242;11.654;2022-11-15T06:39:19;95929.28;;;1.08;100.00
62510;BME280;48558;48.242;11.654;2022-11-15T06:43:32;95932.63;;;1.19;100.00
62510;BME280;48558;48.242;11.654;2022-11-15T06:47:45;95938.56;;;1.37;100.00
62510;BME280;48558;48.242;11.654;2022-11-15T06:51:58;95947.09;;;1.39;100.00
62510;BME280;48558;48.242;11.654;2022-11-15T06:56:10;95942.81;;;1.38;100.00
62510;BME280;48558;48.242;11.654;2022-11-15T07:00:23;95938.94;;;1.39;100.00
62510;BME280;48558;48.242;11.654;2022-11-15T07:04:35;95945.91;;;1.40;100.00
62510;BME280;48558;48.242;11.654;2022-11-15T07:08:48;95948.13;;;1.49;100.00
62510;BME280;48558;48.242;11.654;2022-11-15T07:13:00;95960.75;;;1.63;100.00
62510;BME280;48558;48.242;11.654;2022-11-15T07:17:12;95948.53;;;1.71;100.00
62510;BME280;48558;48.242;11.654;2022-11-15T07:21:25;95941.41;;;1.80;100.00
62510;BME280;48558;48.242;11.654;2022-11-15T07:25:38;95935.56;;;2.01;100.00
62510;BME280;48558;48.242;11.654;2022-11-15T07:29:50;95938.91;;;2.12;100.00
62510;BME280;48558;48.242;11.654;2022-11-15T07:34:02;95939.75;;;2.29;100.00
62510;BME280;48558;48.242;11.654;2022-11-15T07:38:15;95942.50;;;2.49;100.00
62510;BME280;48558;48.242;11.654;2022-11-15T07:42:27;95934.59;;;2.54;100.00
62510;BME280;48558;48.242;11.654;2022-11-15T07:47:01;95947.88;;;2.72;100.00
62510;BME280;48558;48.242;11.654;2022-11-15T07:51:14;95949.50;;;2.89;100.00
62510;BME280;48558;48.242;11.654;2022-11-15T07:55:28;95952.69;;;3.23;100.00
62510;BME280;48558;48.242;11.654;2022-11-15T07:59:41;95953.13;;;3.38;100.00
62510;BME280;48558;48.242;11.654;2022-11-15T08:03:54;95937.28;;;3.65;100.00
62510;BME280;48558;48.242;11.654;2022-11-15T08:08:10;95919.00;;;3.78;100.00
62510;BME280;48558;48.242;11.654;2022-11-15T08:12:23;95932.66;;;3.94;100.00
62510;BME280;48558;48.242;11.654;2022-11-15T08:16:35;95929.47;;;4.12;100.00
62510;BME280;48558;48.242;11.654;2022-11-15T08:20:48;95923.13;;;4.31;100.00
62510;BME280;48558;48.242;11.654;2022-11-15T08:25:00;95916.84;;;4.47;100.00
62510;BME280;48558;48.242;11.654;2022-11-15T08:29:13;95910.75;;;4.84;100.00
62510;BME280;48558;48.242;11.654;2022-11-15T08:33:25;95890.50;;;5.06;100.00
62510;BME280;48558;48.242;11.654;2022-11-15T08:37:38;95884.50;;;5.24;100.00
62510;BME280;48558;48.242;11.654;2022-11-15T08:41:50;95869.69;;;5.72;100.00
62510;BME280;48558;48.242;11.654;2022-11-15T08:46:02;95865.38;;;5.96;100.00
62510;BME280;48558;48.242;11.654;2022-11-15T08:50:15;95848.31;;;6.14;100.00
62510;BME280;48558;48.242;11.654;2022-11-15T08:54:28;95863.03;;;6.29;100.00
62510;BME280;48558;48.242;11.654;2022-11-15T08:58:40;95855.28;;;6.49;100.00
62510;BME280;48558;48.242;11.654;2022-11-15T09:02:54;95863.44;;;6.83;100.00
62510;BME280;48558;48.242;11.654;2022-11-15T09:07:06;95858.97;;;6.98;100.00
62510;BME280;48558;48.242;11.654;2022-11-15T09:11:19;95869.81;;;7.33;100.00
62510;BME280;48558;48.242;11.654;2022-11-15T09:15:33;95865.91;;;7.52;100.00
62510;BME280;48558;48.242;11.654;2022-11-15T09:19:45;95860.22;;;8.04;100.00
62510;BME280;48558;48.242;11.654;2022-11-15T09:23:58;95852.78;;;8.32;100.00
62510;BME280;48558;48.242;11.654;2022-11-15T09:28:10;95853.09;;;8.61;100.00
62510;BME280;48558;48.242;11.654;2022-11-15T09:32:22;95836.63;;;9.03;100.00
62510;BME280;48558;48.242;11.654;2022-11-15T09:36:35;95839.31;;;9.21;100.00
62510;BME280;48558;48.242;11.654;2022-11-15T09:40:57;95835.44;;;9.36;100.00
62510;BME280;48558;48.242;11.654;2022-11-15T09:45:20;95830.50;;;9.50;100.00
62510;BME280;48558;48.242;11.654;2022-11-15T09:49:38;95823.44;;;9.81;100.00
62510;BME280;48558;48.242;11.654;2022-11-15T09:58:46;95804.72;;;10.00;100.00
62510;BME280;48558;48.242;11.654;2022-11-15T10:03:25;95793.34;;;10.31;100.00
62510;BME280;48558;48.242;11.654;2022-11-15T10:07:58;95780.31;;;10.46;100.00
62510;BME280;48558;48.242;11.654;2022-11-15T10:12:15;95776.63;;;10.78;100.00
62510;BME280;48558;48.242;11.654;2022-11-15T10:21:18;95774.75;;;11.33;100.00
62510;BME280;48558;48.242;11.654;2022-11-15T10:25:33;95764.03;;;11.56;100.00
62510;BME280;48558;48.242;11.654;2022-11-15T10:29:50;95757.81;;;11.81;100.00
62510;BME280;48558;48.242;11.654;2022-11-15T10:34:15;95748.91;;;11.71;100.00
62510;BME280;48558;48.242;11.654;2022-11-15T10:38:27;95727.50;;;12.12;100.00
62510;BME280;48558;48.242;11.654;2022-11-15T10:42:40;95727.63;;;12.23;100.00
62510;BME280;48558;48.242;11.654;2022-11-15T10:51:39;95727.19;;;12.56;94.66
62510;BME280;48558;48.242;11.654;2022-11-15T10:55:56;95720.00;;;12.95;100.00
62510;BME280;48558;48.242;11.654;2022-11-15T11:04:23;95704.41;;;13.34;90.15
62510;BME280;48558;48.242;11.654;2022-11-15T11:08:35;95705.44;;;13.37;94.84
62510;BME280;48558;48.242;11.654;2022-11-15T11:12:48;95697.75;;;13.63;95.33
62510;BME280;48558;48.242;11.654;2022-11-15T11:30:42;95659.78;;;13.97;90.42
62510;BME280;48558;48.242;11.654;2022-11-15T11:35:13;95669.44;;;14.23;94.07
62510;BME280;48558;48.242;11.654;2022-11-15T11:44:07;95664.19;;;14.48;89.60
62510;BME280;48558;48.242;11.654;2022-11-15T11:48:41;95644.75;;;14.48;87.86
62510;BME280;48558;48.242;11.654;2022-11-15T11:52:57;95639.94;;;14.70;86.26
62510;BME280;48558;48.242;11.654;2022-11-15T11:57:25;95644.00;;;14.53;91.09
62510;BME280;48558;48.242;11.654;2022-11-15T12:01:43;95635.34;;;14.23;88.99
62510;BME280;48558;48.242;11.654;2022-11-15T12:06:00;95623.50;;;14.61;98.51
62510;BME280;48558;48.242;11.654;2022-11-15T12:10:24;95617.72;;;14.43;94.02
62510;BME280;48558;48.242;11.654;2022-11-15T12:14:47;95603.31;;;14.55;93.27
62510;BME280;48558;48.242;11.654;2022-11-15T12:19:03;95592.88;;;14.06;95.41
62510;BME280;48558;48.242;11.654;2022-11-15T12:23:19;95597.72;;;14.50;100.00
62510;BME280;48558;48.242;11.654;2022-11-15T12:27:39;95593.94;;;14.64;91.09
62510;BME280;48558;48.242;11.654;2022-11-15T12:31:55;95593.13;;;15.07;97.93
62510;BME280;48558;48.242;11.654;2022-11-15T12:36:12;95595.47;;;14.76;89.66
62510;BME280;48558;48.242;11.654;2022-11-15T12:45:35;95584.78;;;14.02;95.32
62510;BME280;48558;48.242;11.654;2022-11-15T12:49:49;95578.72;;;14.09;100.00
62510;BME280;48558;48.242;11.654;2022-11-15T12:58:50;95574.69;;;14.05;100.00
62510;BME280;48558;48.242;11.654;2022-11-15T13:03:23;95575.97;;;14.15;100.00
62510;BME280;48558;48.242;11.654;2022-11-15T13:11:52;95565.84;;;14.12;99.42
62510;BME280;48558;48.242;11.654;2022-11-15T13:16:06;95561.59;;;14.50;100.00
62510;BME280;48558;48.242;11.654;2022-11-15T13:20:30;95565.88;;;14.62;98.45
62510;BME280;48558;48.242;11.654;2022-11-15T13:24:43;95568.91;;;14.75;100.00
62510;BME280;48558;48.242;11.654;2022-11-15T13:28:55;95569.94;;;14.72;100.00
62510;BME280;48558;48.242;11.654;2022-11-15T13:33:17;95562.34;;;14.17;100.00
62510;BME280;48558;48.242;11.654;2022-11-15T13:37:38;95556.41;;;13.59;100.00
62510;BME280;48558;48.242;11.654;2022-11-15T13:41:52;95554.41;;;13.54;100.00
62510;BME280;48558;48.242;11.654;2022-11-15T13:50:38;95548.44;;;13.14;100.00
62510;BME280;48558;48.242;11.654;2022-11-15T13:55:11;95547.50;;;12.85;100.00
62510;BME280;48558;48.242;11.654;2022-11-15T14:04:06;95539.69;;;12.89;100.00
62510;BME280;48558;48.242;11.654;2022-11-15T14:12:33;95545.09;;;12.62;100.00
62510;BME280;48558;48.242;11.654;2022-11-15T14:16:52;95536.41;;;12.43;100.00
62510;BME280;48558;48.242;11.654;2022-11-15T14:21:07;95539.13;;;12.38;100.00
62510;BME280;48558;48.242;11.654;2022-11-15T14:25:25;95543.28;;;12.22;100.00
62510;BME280;48558;48.242;11.654;2022-11-15T14:29:39;95548.63;;;12.26;100.00
62510;BME280;48558;48.242;11.654;2022-11-15T14:33:51;95539.63;;;12.05;100.00
62510;BME280;48558;48.242;11.654;2022-11-15T14:38:03;95531.63;;;11.81;100.00
62510;BME280;48558;48.242;11.654;2022-11-15T14:42:16;95541.69;;;11.59;100.00
62510;BME280;48558;48.242;11.654;2022-11-15T14:46:29;95535.09;;;11.56;100.00
62510;BME280;48558;48.242;11.654;2022-11-15T14:50:41;95533.56;;;11.29;100.00
62510;BME280;48558;48.242;11.654;2022-11-15T14:54:55;95542.31;;;11.68;100.00
62510;BME280;48558;48.242;11.654;2022-11-15T14:59:07;95535.97;;;11.22;100.00
62510;BME280;48558;48.242;11.654;2022-11-15T15:03:30;95534.41;;;10.95;100.00
62510;BME280;48558;48.242;11.654;2022-11-15T15:07:43;95530.97;;;10.80;100.00
62510;BME280;48558;48.242;11.654;2022-11-15T15:11:56;95525.13;;;10.58;100.00
62510;BME280;48558;48.242;11.654;2022-11-15T15:16:15;95529.81;;;10.17;100.00
62510;BME280;48558;48.242;11.654;2022-11-15T15:20:27;95526.19;;;10.11;100.00
62510;BME280;48558;48.242;11.654;2022-11-15T15:24:41;95529.25;;;9.69;100.00
62510;BME280;48558;48.242;11.654;2022-11-15T15:28:54;95523.31;;;9.62;100.00
62510;BME280;48558;48.242;11.654;2022-11-15T15:33:06;95529.75;;;9.15;100.00
62510;BME280;48558;48.242;11.654;2022-11-15T15:37:25;95523.94;;;8.75;100.00
62510;BME280;48558;48.242;11.654;2022-11-15T15:41:38;95513.38;;;8.49;100.00
62510;BME280;48558;48.242;11.654;2022-11-15T15:45:50;95519.75;;;8.23;100.00
62510;BME280;48558;48.242;11.654;2022-11-15T15:50:04;95527.34;;;7.95;100.00
62510;BME280;48558;48.242;11.654;2022-11-15T15:54:16;95527.34;;;7.95;100.00
62510;BME280;48558;48.242;11.654;2022-11-15T15:58:29;95526.31;;;8.34;100.00
62510;BME280;48558;48.242;11.654;2022-11-15T16:02:42;95528.50;;;8.12;100.00
62510;BME280;48558;48.242;11.654;2022-11-15T16:06:59;95530.72;;;7.90;100.00
62510;BME280;48558;48.242;11.654;2022-11-15T16:11:11;95525.72;;;7.79;100.00
62510;BME280;48558;48.242;11.654;2022-11-15T16:15:31;95526.84;;;7.64;100.00
62510;BME280;48558;48.242;11.654;2022-11-15T16:19:44;95520.44;;;7.49;100.00
62510;BME280;48558;48.242;11.654;2022-11-15T16:24:04;95513.94;;;7.37;100.00
62510;BME280;48558;48.242;11.654;2022-11-15T16:32:34;95499.13;;;7.26;100.00
62510;BME280;48558;48.242;11.654;2022-11-15T16:36:46;95489.38;;;7.15;100.00
62510;BME280;48558;48.242;11.654;2022-11-15T16:40:58;95493.19;;;7.09;100.00
62510;BME280;48558;48.242;11.654;2022-11-15T16:45:11;95480.22;;;7.09;100.00
62510;BME280;48558;48.242;11.654;2022-11-15T16:49:25;95483.59;;;7.04;100.00
62510;BME280;48558;48.242;11.654;2022-11-15T16:53:47;95482.81;;;7.04;100.00
62510;BME280;48558;48.242;11.654;2022-11-15T16:58:01;95477.19;;;6.98;100.00
62510;BME280;48558;48.242;11.654;2022-11-15T17:02:14;95484.50;;;7.01;100.00
62510;BME280;48558;48.242;11.654;2022-11-15T17:06:26;95473.22;;;6.99;100.00
62510;BME280;48558;48.242;11.654;2022-11-15T17:10:44;95463.47;;;6.98;100.00
62510;BME280;48558;48.242;11.654;2022-11-15T17:14:56;95458.88;;;6.95;100.00
62510;BME280;48558;48.242;11.654;2022-11-15T17:19:12;95457.50;;;6.91;100.00
62510;BME280;48558;48.242;11.654;2022-11-15T17:23:26;95467.72;;;6.90;100.00
62510;BME280;48558;48.242;11.654;2022-11-15T17:27:38;95456.31;;;6.83;100.00
62510;BME280;48558;48.242;11.654;2022-11-15T17:31:51;95447.13;;;6.77;100.00
62510;BME280;48558;48.242;11.654;2022-11-15T17:36:05;95452.94;;;6.70;100.00
62510;BME280;48558;48.242;11.654;2022-11-15T17:40:18;95441.66;;;6.59;100.00
62510;BME280;48558;48.242;11.654;2022-11-15T17:44:31;95427.47;;;6.42;100.00
62510;BME280;48558;48.242;11.654;2022-11-15T17:48:44;95428.53;;;6.35;100.00
62510;BME280;48558;48.242;11.654;2022-11-15T17:52:58;95433.53;;;6.19;100.00
62510;BME280;48558;48.242;11.654;2022-11-15T17:57:16;95422.25;;;5.99;100.00
62510;BME280;48558;48.242;11.654;2022-11-15T18:01:31;95419.47;;;5.90;100.00
62510;BME280;48558;48.242;11.654;2022-11-15T18:05:44;95425.56;;;5.94;100.00
62510;BME280;48558;48.242;11.654;2022-11-15T18:09:56;95434.94;;;6.32;100.00
62510;BME280;48558;48.242;11.654;2022-11-15T18:14:13;95426.53;;;6.36;100.00
62510;BME280;48558;48.242;11.654;2022-11-15T18:18:26;95425.78;;;6.26;100.00
62510;BME280;48558;48.242;11.654;2022-11-15T18:22:38;95421.81;;;6.18;100.00
62510;BME280;48558;48.242;11.654;2022-11-15T18:26:50;95416.78;;;6.08;100.00
62510;BME280;48558;48.242;11.654;2022-11-15T18:31:14;95406.56;;;6.08;100.00
62510;BME280;48558;48.242;11.654;2022-11-15T18:35:33;95419.50;;;6.08;100.00
62510;BME280;48558;48.242;11.654;2022-11-15T18:39:45;95410.97;;;6.06;100.00
62510;BME280;48558;48.242;11.654;2022-11-15T18:44:04;95390.09;;;5.99;100.00
62510;BME280;48558;48.242;11.654;2022-11-15T18:48:20;95388.72;;;5.95;100.00
62510;BME280;48558;48.242;11.654;2022-11-15T18:52:32;95397.84;;;5.92;100.00
62510;BME280;48558;48.242;11.654;2022-11-15T18:56:44;95394.03;;;5.89;100.00
62510;BME280;48558;48.242;11.654;2022-11-15T19:01:02;95395.56;;;5.90;100.00
62510;BME280;48558;48.242;11.654;2022-11-15T19:05:15;95387.78;;;5.89;100.00
62510;BME280;48558;48.242;11.654;2022-11-15T19:09:29;95385.03;;;5.89;100.00
62510;BME280;48558;48.242;11.654;2022-11-15T19:13:44;95383.69;;;5.93;100.00
62510;BME280;48558;48.242;11.654;2022-11-15T19:17:57;95373.72;;;5.77;100.00
62510;BME280;48558;48.242;11.654;2022-11-15T19:22:09;95364.59;;;5.71;100.00
62510;BME280;48558;48.242;11.654;2022-11-15T19:26:22;95357.72;;;5.67;100.00
62510;BME280;48558;48.242;11.654;2022-11-15T19:30:37;95349.94;;;5.74;100.00
62510;BME280;48558;48.242;11.654;2022-11-15T19:34:49;95343.09;;;5.79;100.00
62510;BME280;48558;48.242;11.654;2022-11-15T19:39:04;95339.91;;;5.71;100.00
62510;BME280;48558;48.242;11.654;2022-11-15T19:43:19;95343.72;;;5.65;100.00
62510;BME280;48558;48.242;11.654;2022-11-15T19:47:31;95345.38;;;5.62;100.00
62510;BME280;48558;48.242;11.654;2022-11-15T19:51:43;95338.50;;;5.58;100.00
62510;BME280;48558;48.242;11.654;2022-11-15T19:56:04;95342.03;;;5.58;100.00
62510;BME280;48558;48.242;11.654;2022-11-15T20:00:17;95331.50;;;5.57;100.00
62510;BME280;48558;48.242;11.654;2022-11-15T20:04:29;95341.38;;;5.54;100.00
62510;BME280;48558;48.242;11.654;2022-11-15T20:08:42;95336.22;;;5.56;100.00
62510;BME280;48558;48.242;11.654;2022-11-15T20:13:00;95332.88;;;5.61;100.00
62510;BME280;48558;48.242;11.654;2022-11-15T20:17:12;95321.03;;;5.64;100.00
62510;BME280;48558;48.242;11.654;2022-11-15T20:21:25;95329.72;;;5.72;100.00
62510;BME280;48558;48.242;11.654;2022-11-15T20:25:37;95328.03;;;5.74;100.00
62510;BME280;48558;48.242;11.654;2022-11-15T20:29:50;95324.25;;;5.81;100.00
62510;BME280;48558;48.242;11.654;2022-11-15T20:34:04;95310.88;;;5.92;100.00
62510;BME280;48558;48.242;11.654;2022-11-15T20:38:17;95305.09;;;6.08;100.00
62510;BME280;48558;48.242;11.654;2022-11-15T20:42:31;95306.78;;;6.15;100.00
62510;BME280;48558;48.242;11.654;2022-11-15T20:46:44;95294.88;;;6.18;100.00
62510;BME280;48558;48.242;11.654;2022-11-15T20:51:16;95292.00;;;6.21;100.00
62510;BME280;48558;48.242;11.654;2022-11-15T20:55:29;95288.78;;;6.23;100.00
62510;BME280;48558;48.242;11.654;2022-11-15T20:59:41;95282.53;;;6.22;100.00
62510;BME280;48558;48.242;11.654;2022-11-15T21:03:54;95288.19;;;6.19;100.00
62510;BME280;48558;48.242;11.654;2022-11-15T21:08:08;95274.94;;;6.17;100.00
62510;BME280;48558;48.242;11.654;2022-11-15T21:12:21;95269.88;;;6.16;100.00
62510;BME280;48558;48.242;11.654;2022-11-15T21:16:33;95275.38;;;6.16;100.00
62510;BME280;48558;48.242;11.654;2022-11-15T21:20:46;95269.13;;;6.15;100.00
62510;BME280;48558;48.242;11.654;2022-11-15T21:24:58;95261.06;;;6.12;100.00
62510;BME280;48558;48.242;11.654;2022-11-15T21:29:11;95245.69;;;6.14;100.00
62510;BME280;48558;48.242;11.654;2022-11-15T21:33:28;95240.19;;;6.14;100.00
62510;BME280;48558;48.242;11.654;2022-11-15T21:37:40;95235.78;;;6.17;100.00
62510;BME280;48558;48.242;11.654;2022-11-15T21:41:53;95223.41;;;6.21;100.00
62510;BME280;48558;48.242;11.654;2022-11-15T21:46:05;95222.19;;;6.22;100.00
62510;BME280;48558;48.242;11.654;2022-11-15T21:50:18;95210.63;;;6.18;100.00
62510;BME280;48558;48.242;11.654;2022-11-15T21:54:30;95198.13;;;6.17;100.00
62510;BME280;48558;48.242;11.654;2022-11-15T21:58:42;95207.41;;;6.20;100.00
62510;BME280;48558;48.242;11.654;2022-11-15T22:02:54;95192.81;;;6.05;100.00
62510;BME280;48558;48.242;11.654;2022-11-15T22:07:07;95180.16;;;6.07;100.00
62510;BME280;48558;48.242;11.654;2022-11-15T22:11:19;95184.59;;;5.96;100.00
62510;BME280;48558;48.242;11.654;2022-11-15T22:15:32;95163.00;;;5.89;100.00
62510;BME280;48558;48.242;11.654;2022-11-15T22:19:44;95164.06;;;5.73;100.00
62510;BME280;48558;48.242;11.654;2022-11-15T22:24:03;95152.97;;;5.67;100.00
62510;BME280;48558;48.242;11.654;2022-11-15T22:28:16;95146.13;;;5.45;100.00
62510;BME280;48558;48.242;11.654;2022-11-15T22:32:35;95147.94;;;5.30;100.00
62510;BME280;48558;48.242;11.654;2022-11-15T22:36:47;95149.59;;;5.27;100.00
62510;BME280;48558;48.242;11.654;2022-11-15T22:41:20;95150.22;;;5.22;100.00
62510;BME280;48558;48.242;11.654;2022-11-15T22:45:32;95150.97;;;5.32;100.00
62510;BME280;48558;48.242;11.654;2022-11-15T22:49:44;95148.22;;;5.32;100.00
62510;BME280;48558;48.242;11.654;2022-11-15T22:53:57;95159.94;;;5.23;100.00
62510;BME280;48558;48.242;11.654;2022-11-15T22:58:09;95169.69;;;5.33;100.00
62510;BME280;48558;48.242;11.654;2022-11-15T23:02:21;95164.81;;;5.28;100.00
62510;BME280;48558;48.242;11.654;2022-11-15T23:06:34;95159.03;;;5.26;100.00
62510;BME280;48558;48.242;11.654;2022-11-15T23:10:46;95148.38;;;5.19;100.00
62510;BME280;48558;48.242;11.654;2022-11-15T23:15:17;95146.13;;;5.18;100.00
62510;BME280;48558;48.242;11.654;2022-11-15T23:19:29;95151.59;;;5.18;100.00
62510;BME280;48558;48.242;11.654;2022-11-15T23:23:42;95153.41;;;5.21;100.00
62510;BME280;48558;48.242;11.654;2022-11-15T23:27:54;95142.00;;;5.31;100.00
62510;BME280;48558;48.242;11.654;2022-11-15T23:32:07;95126.94;;;5.27;100.00
62510;BME280;48558;48.242;11.654;2022-11-15T23:36:38;95116.28;;;5.38;100.00
62510;BME280;48558;48.242;11.654;2022-11-15T23:40:52;95108.97;;;5.26;100.00
62510;BME280;48558;48.242;11.654;2022-11-15T23:45:05;95105.63;;;5.40;100.00
62510;BME280;48558;48.242;11.654;2022-11-15T23:49:18;95091.47;;;5.32;100.00
62510;BME280;48558;48.242;11.654;2022-11-15T23:53:31;95090.28;;;5.24;100.00